Time;durP1;ratioP1;P1;durP2;ratioP2;P2;SDS_P1;SDS_P2;PMS_P1;PMS_P2;Temp;Humidity;BMP_temperature;BMP_pressure;BME280_temperature;BME280_humidity;BME280_pressure;Samples;Min_cycle;Max_cycle;Signal;HPM_P1;HPM_P2
2023/05/09 00:01:28;;;;;;;116.72;22.63;;;;;;;;;;5012694;28;20391;-42
2023/05/09 00:03:55;;;;;;;103.95;24.05;;;;;;;;;;5012874;28;20030;-42
2023/05/09 00:06:22;;;;;;;116.85;22.38;;;;;;;;;;5012350;28;20058;-42
2023/05/09 00:08:49;;;;;;;109.60;22.42;;;;;;;;;;5012302;28;20034;-41
2023/05/09 00:11:16;;;;;;;111.85;22.60;;;;;;;;;;5010702;28;20092;-42
2023/05/09 00:13:43;;;;;;;104.40;21.83;;;;;;;;;;5011781;28;20058;-44
2023/05/09 00:16:10;;;;;;;144.98;24.40;;;;;;;;;;4993869;28;20440;-41
2023/05/09 00:18:41;;;;;;;107.90;22.13;;;;;;;;;;5008302;28;20038;-41
2023/05/09 00:21:08;;;;;;;138.15;23.83;;;;;;;;;;5010570;28;20034;-42
2023/05/09 00:23:35;;;;;;;116.10;22.15;;;;;;;;;;5009961;28;20037;-42
2023/05/09 00:26:02;;;;;;;108.10;22.33;;;;;;;;;;5001669;28;20136;-46
2023/05/09 00:28:29;;;;;;;99.05;20.50;;;;;;;;;;4998286;28;20054;-42
2023/05/09 00:30:57;;;;;;;124.88;22.52;;;;;;;;;;4993558;28;20404;-40
2023/05/09 00:33:27;;;;;;;112.50;21.92;;;;;;;;;;5002585;28;20048;-39
2023/05/09 00:35:54;;;;;;;112.45;22.90;;;;;;;;;;5007484;28;20772;-40
2023/05/09 00:38:22;;;;;;;122.28;22.08;;;;;;;;;;5010849;28;20021;-42
2023/05/09 00:40:49;;;;;;;117.72;23.83;;;;;;;;;;5014968;28;20034;-44
2023/05/09 00:43:16;;;;;;;149.27;25.85;;;;;;;;;;5017100;28;20037;-41
2023/05/09 00:45:44;;;;;;;132.40;24.20;;;;;;;;;;5005224;28;20034;-41
2023/05/09 00:48:11;;;;;;;117.70;24.58;;;;;;;;;;5001994;28;20042;-41
2023/05/09 00:50:38;;;;;;;107.68;23.45;;;;;;;;;;4991265;28;20057;-42
2023/05/09 00:53:06;;;;;;;106.30;22.42;;;;;;;;;;5003333;28;20547;-44
2023/05/09 00:55:33;;;;;;;97.13;19.95;;;;;;;;;;4991550;28;20113;-42
2023/05/09 00:58:00;;;;;;;117.80;23.83;;;;;;;;;;4991430;28;20479;-43
2023/05/09 01:00:28;;;;;;;118.60;23.85;;;;;;;;;;4991391;28;20087;-41
2023/05/09 01:02:56;;;;;;;106.40;23.58;;;;;;;;;;4991196;28;20516;-41
2023/05/09 01:05:26;;;;;;;103.45;25.35;;;;;;;;;;5002168;28;20526;-43
2023/05/09 01:08:00;;;;;;;120.22;27.85;;;;;;;;;;4992779;28;20476;-43
2023/05/09 01:10:43;;;;;;;123.65;26.55;;;;;;;;;;4992731;28;20488;-46
2023/05/09 01:13:10;;;;;;;126.53;27.98;;;;;;;;;;5004078;28;20026;-41
2023/05/09 01:15:49;;;;;;;122.60;28.73;;;;;;;;;;5001423;28;20068;-41
2023/05/09 01:18:32;;;;;;;118.05;28.30;;;;;;;;;;5010625;28;20028;-43
2023/05/09 01:20:59;;;;;;;125.85;30.20;;;;;;;;;;5010741;28;20084;-49
2023/05/09 01:23:29;;;;;;;107.47;30.17;;;;;;;;;;5010752;28;20042;-43
2023/05/09 01:26:02;;;;;;;109.47;30.08;;;;;;;;;;5001850;28;20038;-44
2023/05/09 01:28:35;;;;;;;106.15;29.70;;;;;;;;;;4995731;28;20098;-42
2023/05/09 01:31:03;;;;;;;109.75;29.05;;;;;;;;;;4999557;28;20105;-43
2023/05/09 01:33:33;;;;;;;114.53;29.25;;;;;;;;;;5008643;28;20054;-46
2023/05/09 01:36:03;;;;;;;97.57;27.63;;;;;;;;;;5010677;28;20117;-46
2023/05/09 01:38:31;;;;;;;102.47;29.17;;;;;;;;;;5004143;28;20113;-43
2023/05/09 01:40:58;;;;;;;102.57;25.75;;;;;;;;;;4996409;28;20026;-44
2023/05/09 01:43:27;;;;;;;104.07;26.35;;;;;;;;;;4990986;28;20035;-41
2023/05/09 01:45:55;;;;;;;93.70;24.73;;;;;;;;;;5006118;28;20436;-42
2023/05/09 01:48:25;;;;;;;100.35;25.17;;;;;;;;;;4991194;28;20037;-46
2023/05/09 01:50:52;;;;;;;111.95;25.80;;;;;;;;;;4990869;28;20019;-41
2023/05/09 01:53:20;;;;;;;109.95;25.83;;;;;;;;;;4996410;28;20022;-42
2023/05/09 01:55:47;;;;;;;104.68;23.77;;;;;;;;;;5010061;28;20037;-46
2023/05/09 01:58:15;;;;;;;94.70;22.67;;;;;;;;;;5008927;28;20041;-47
2023/05/09 02:00:42;;;;;;;99.47;23.50;;;;;;;;;;5006679;28;20546;-43
2023/05/09 02:03:09;;;;;;;93.75;24.35;;;;;;;;;;5009717;28;20499;-43
2023/05/09 02:05:37;;;;;;;119.50;26.60;;;;;;;;;;5013053;28;20042;-43
2023/05/09 02:08:04;;;;;;;108.13;25.55;;;;;;;;;;5013905;28;20044;-46
2023/05/09 02:10:31;;;;;;;99.00;25.05;;;;;;;;;;5011522;28;20805;-43
2023/05/09 02:12:58;;;;;;;97.80;24.20;;;;;;;;;;5013550;28;20048;-42
2023/05/09 02:15:26;;;;;;;98.80;23.85;;;;;;;;;;5013757;28;20029;-47
2023/05/09 02:17:53;;;;;;;86.53;22.50;;;;;;;;;;5011525;28;20046;-42
2023/05/09 02:20:20;;;;;;;93.78;24.15;;;;;;;;;;5015005;28;20026;-42
2023/05/09 02:22:47;;;;;;;91.28;22.35;;;;;;;;;;5014700;28;20041;-42
2023/05/09 02:25:14;;;;;;;87.93;21.50;;;;;;;;;;5014925;28;20038;-43
2023/05/09 02:27:42;;;;;;;95.10;23.42;;;;;;;;;;5014962;28;20025;-43
2023/05/09 02:30:11;;;;;;;85.43;21.98;;;;;;;;;;5013787;28;20373;-44
2023/05/09 02:32:39;;;;;;;90.45;21.15;;;;;;;;;;5014920;28;20037;-43
2023/05/09 02:35:08;;;;;;;85.32;21.02;;;;;;;;;;5014615;28;20041;-44
2023/05/09 02:37:35;;;;;;;91.90;21.75;;;;;;;;;;5014764;28;20033;-43
2023/05/09 02:40:04;;;;;;;74.97;21.13;;;;;;;;;;5014797;28;20022;-43
2023/05/09 02:42:31;;;;;;;95.18;20.85;;;;;;;;;;5014579;28;20044;-43
2023/05/09 02:44:58;;;;;;;75.35;19.35;;;;;;;;;;5014542;28;20399;-43
2023/05/09 02:47:25;;;;;;;91.97;20.52;;;;;;;;;;5014511;28;20026;-43
2023/05/09 02:49:52;;;;;;;87.80;21.45;;;;;;;;;;5014596;28;20029;-43
2023/05/09 02:52:19;;;;;;;76.95;20.63;;;;;;;;;;5014569;28;20494;-46
2023/05/09 02:54:46;;;;;;;86.70;19.63;;;;;;;;;;5014333;28;20049;-43
2023/05/09 02:57:13;;;;;;;74.82;19.02;;;;;;;;;;5014444;28;20435;-43
2023/05/09 02:59:41;;;;;;;89.10;20.17;;;;;;;;;;5014348;28;20084;-44
2023/05/09 03:02:07;;;;;;;78.38;19.90;;;;;;;;;;5014290;28;20033;-43
2023/05/09 03:04:35;;;;;;;72.40;18.35;;;;;;;;;;5014277;28;20535;-43
2023/05/09 03:07:02;;;;;;;79.47;19.02;;;;;;;;;;5014241;28;20030;-46
2023/05/09 03:09:29;;;;;;;78.88;19.00;;;;;;;;;;5014181;28;20025;-43
2023/05/09 03:11:56;;;;;;;76.43;18.98;;;;;;;;;;5014170;28;20472;-43
2023/05/09 03:14:23;;;;;;;77.10;18.75;;;;;;;;;;5013925;28;20022;-45
2023/05/09 03:16:50;;;;;;;70.80;17.98;;;;;;;;;;5013811;28;20091;-43
2023/05/09 03:19:17;;;;;;;80.85;18.67;;;;;;;;;;5014077;28;20025;-42
2023/05/09 03:21:44;;;;;;;76.03;18.70;;;;;;;;;;5013902;28;20049;-43
2023/05/09 03:24:11;;;;;;;75.00;19.27;;;;;;;;;;5013798;28;20036;-42
2023/05/09 03:26:38;;;;;;;70.38;18.08;;;;;;;;;;5013855;28;20495;-43
2023/05/09 03:29:05;;;;;;;75.75;17.73;;;;;;;;;;5013800;28;20713;-43
2023/05/09 03:31:32;;;;;;;73.63;16.60;;;;;;;;;;5013822;28;20391;-43
2023/05/09 03:33:59;;;;;;;69.32;16.65;;;;;;;;;;5013705;28;20527;-43
2023/05/09 03:36:26;;;;;;;74.50;17.25;;;;;;;;;;5013634;28;20108;-43
2023/05/09 03:38:53;;;;;;;69.88;17.38;;;;;;;;;;5013367;28;20022;-43
2023/05/09 03:41:20;;;;;;;74.55;15.85;;;;;;;;;;5013457;28;20025;-43
2023/05/09 03:43:47;;;;;;;76.40;17.70;;;;;;;;;;5013464;28;20033;-43
2023/05/09 03:46:14;;;;;;;70.95;16.98;;;;;;;;;;5013514;28;20104;-43
2023/05/09 03:48:41;;;;;;;71.43;17.45;;;;;;;;;;5013481;28;20022;-43
2023/05/09 03:51:08;;;;;;;71.43;17.15;;;;;;;;;;5013362;28;20029;-43
2023/05/09 03:53:35;;;;;;;67.57;16.33;;;;;;;;;;5013318;28;20487;-44
2023/05/09 03:56:02;;;;;;;62.70;15.63;;;;;;;;;;5013393;28;20100;-43
2023/05/09 03:58:29;;;;;;;65.43;17.00;;;;;;;;;;5013265;28;20026;-43
2023/05/09 04:00:56;;;;;;;59.75;16.42;;;;;;;;;;5013305;28;20113;-45
2023/05/09 04:03:23;;;;;;;59.65;16.35;;;;;;;;;;5013061;28;20045;-43
2023/05/09 04:05:50;;;;;;;58.67;15.27;;;;;;;;;;5012863;28;20045;-43
2023/05/09 04:08:17;;;;;;;64.68;16.88;;;;;;;;;;5013169;28;20070;-43
2023/05/09 04:10:44;;;;;;;66.60;16.23;;;;;;;;;;5013059;28;20037;-43
2023/05/09 04:13:11;;;;;;;60.50;16.67;;;;;;;;;;5012895;28;20056;-43
2023/05/09 04:15:38;;;;;;;57.50;16.02;;;;;;;;;;5013008;28;20037;-43
2023/05/09 04:18:06;;;;;;;64.82;15.63;;;;;;;;;;5012854;28;20041;-43
2023/05/09 04:20:33;;;;;;;47.67;13.88;;;;;;;;;;5012807;28;20470;-43
2023/05/09 04:23:00;;;;;;;53.60;14.18;;;;;;;;;;5012715;28;20034;-43
2023/05/09 04:25:28;;;;;;;54.10;14.60;;;;;;;;;;5013061;28;20439;-43
2023/05/09 04:27:55;;;;;;;52.25;14.15;;;;;;;;;;5012072;28;20084;-43
2023/05/09 04:30:22;;;;;;;57.92;14.65;;;;;;;;;;5012628;28;20042;-41
2023/05/09 04:32:49;;;;;;;53.05;14.27;;;;;;;;;;5012542;28;20049;-42
2023/05/09 04:35:16;;;;;;;51.75;14.80;;;;;;;;;;5012610;28;20049;-42
2023/05/09 04:37:43;;;;;;;50.75;14.85;;;;;;;;;;5012662;28;20030;-42
2023/05/09 04:40:10;;;;;;;56.92;14.20;;;;;;;;;;5012493;28;20392;-45
2023/05/09 04:42:38;;;;;;;49.25;14.05;;;;;;;;;;5012383;28;20125;-42
2023/05/09 04:45:06;;;;;;;48.92;14.10;;;;;;;;;;5012448;28;20105;-41
2023/05/09 04:47:33;;;;;;;50.17;13.40;;;;;;;;;;5012509;28;20026;-43
2023/05/09 04:50:00;;;;;;;48.88;13.50;;;;;;;;;;5012391;28;20029;-41
2023/05/09 04:52:27;;;;;;;49.38;12.93;;;;;;;;;;5012265;28;20056;-40
2023/05/09 04:54:54;;;;;;;42.58;13.57;;;;;;;;;;5012361;28;20049;-42
2023/05/09 04:57:21;;;;;;;47.97;14.20;;;;;;;;;;5012195;28;20028;-42
2023/05/09 04:59:48;;;;;;;41.05;12.13;;;;;;;;;;5012252;28;20113;-42
2023/05/09 05:02:15;;;;;;;37.42;12.02;;;;;;;;;;5012139;28;20091;-43
2023/05/09 05:04:42;;;;;;;42.78;12.63;;;;;;;;;;5011795;28;20113;-43
2023/05/09 05:07:09;;;;;;;41.25;11.98;;;;;;;;;;5012165;28;20080;-42
2023/05/09 05:09:36;;;;;;;41.80;11.82;;;;;;;;;;5012068;28;20112;-43
2023/05/09 05:12:06;;;;;;;38.55;12.20;;;;;;;;;;5012128;28;20034;-42
2023/05/09 05:14:33;;;;;;;38.15;12.32;;;;;;;;;;5011936;28;20033;-42
2023/05/09 05:17:00;;;;;;;38.00;11.88;;;;;;;;;;5012116;28;20029;-43
2023/05/09 05:19:27;;;;;;;41.72;12.10;;;;;;;;;;5012014;28;20030;-41
2023/05/09 05:21:54;;;;;;;38.42;11.65;;;;;;;;;;5011867;28;20504;-42
2023/05/09 05:24:21;;;;;;;37.75;11.20;;;;;;;;;;5011840;28;20022;-44
2023/05/09 05:26:48;;;;;;;34.65;10.68;;;;;;;;;;5011959;28;20029;-42
2023/05/09 05:29:15;;;;;;;38.17;11.55;;;;;;;;;;5011925;28;20022;-43
2023/05/09 05:31:42;;;;;;;37.33;10.35;;;;;;;;;;5011924;28;20101;-42
2023/05/09 05:34:09;;;;;;;31.35;10.10;;;;;;;;;;5011808;28;20026;-42
2023/05/09 05:36:36;;;;;;;34.10;10.30;;;;;;;;;;5011746;28;20051;-41
2023/05/09 05:39:03;;;;;;;32.85;10.02;;;;;;;;;;5014386;28;20100;-42
2023/05/09 05:41:30;;;;;;;37.15;11.00;;;;;;;;;;5015710;28;20033;-43
2023/05/09 05:43:57;;;;;;;25.40;9.63;;;;;;;;;;5015466;28;20495;-41
2023/05/09 05:46:24;;;;;;;34.67;10.25;;;;;;;;;;5015769;28;20042;-42
2023/05/09 05:48:51;;;;;;;38.58;10.10;;;;;;;;;;5015691;28;20401;-42
2023/05/09 05:51:18;;;;;;;33.42;9.93;;;;;;;;;;5015918;28;20383;-41
2023/05/09 05:53:45;;;;;;;33.05;9.73;;;;;;;;;;5015544;28;20396;-42
2023/05/09 05:56:11;;;;;;;27.45;9.40;;;;;;;;;;5015633;28;20026;-41
2023/05/09 05:58:38;;;;;;;28.65;9.65;;;;;;;;;;5015560;28;20076;-42
2023/05/09 06:01:06;;;;;;;26.60;9.50;;;;;;;;;;5014199;28;20212;-43
2023/05/09 06:03:33;;;;;;;27.67;9.38;;;;;;;;;;5015044;28;20500;-42
2023/05/09 06:06:00;;;;;;;23.23;8.32;;;;;;;;;;5015190;28;20479;-46
2023/05/09 06:08:27;;;;;;;27.05;8.57;;;;;;;;;;5015389;28;20427;-43
2023/05/09 06:10:54;;;;;;;29.90;8.48;;;;;;;;;;5015323;28;20065;-43
2023/05/09 06:13:21;;;;;;;24.00;8.32;;;;;;;;;;5015158;28;20508;-43
2023/05/09 06:15:48;;;;;;;24.20;8.27;;;;;;;;;;5015273;28;20504;-43
2023/05/09 06:18:15;;;;;;;24.80;8.88;;;;;;;;;;5015153;28;20535;-44
2023/05/09 06:20:42;;;;;;;28.60;8.32;;;;;;;;;;5015521;28;20049;-43
2023/05/09 06:23:09;;;;;;;23.63;8.13;;;;;;;;;;5014962;28;20049;-43
2023/05/09 06:25:36;;;;;;;22.92;7.45;;;;;;;;;;5014736;28;20380;-42
2023/05/09 06:28:03;;;;;;;25.23;8.02;;;;;;;;;;5014978;28;20034;-44
2023/05/09 06:30:30;;;;;;;22.42;7.80;;;;;;;;;;5014950;28;20104;-43
2023/05/09 06:32:57;;;;;;;20.15;7.07;;;;;;;;;;5014704;28;20042;-42
2023/05/09 06:35:24;;;;;;;17.40;7.40;;;;;;;;;;5014895;28;20030;-42
2023/05/09 06:37:51;;;;;;;23.35;7.63;;;;;;;;;;5014798;28;20026;-43
2023/05/09 06:40:18;;;;;;;24.02;7.68;;;;;;;;;;5014721;28;20026;-44
2023/05/09 06:42:45;;;;;;;20.08;7.38;;;;;;;;;;5014617;28;20030;-41
2023/05/09 06:45:12;;;;;;;21.10;7.05;;;;;;;;;;5014704;28;20026;-42
2023/05/09 06:47:39;;;;;;;19.75;7.20;;;;;;;;;;5014639;28;20030;-43
2023/05/09 06:50:06;;;;;;;18.40;6.53;;;;;;;;;;5013923;28;20073;-42
2023/05/09 06:52:33;;;;;;;20.92;6.05;;;;;;;;;;5014495;28;20519;-42
2023/05/09 06:55:00;;;;;;;16.88;6.25;;;;;;;;;;5014608;28;20104;-42
2023/05/09 06:57:27;;;;;;;23.38;6.72;;;;;;;;;;5014529;28;20101;-41
2023/05/09 06:59:54;;;;;;;21.90;6.28;;;;;;;;;;5014711;28;20661;-42
2023/05/09 07:02:21;;;;;;;16.58;5.63;;;;;;;;;;5014261;28;20077;-44
2023/05/09 07:04:48;;;;;;;16.30;5.97;;;;;;;;;;5014138;28;20037;-42
2023/05/09 07:07:15;;;;;;;15.02;5.95;;;;;;;;;;5014272;28;20069;-42
2023/05/09 07:09:42;;;;;;;14.00;5.50;;;;;;;;;;5029435;28;20041;-42
2023/05/09 07:12:09;;;;;;;16.02;5.90;;;;;;;;;;5014167;28;20029;-41
2023/05/09 07:14:35;;;;;;;15.45;5.47;;;;;;;;;;5014009;28;20723;-42
2023/05/09 07:17:02;;;;;;;19.58;6.03;;;;;;;;;;5014121;28;20026;-43
2023/05/09 07:19:30;;;;;;;17.77;5.43;;;;;;;;;;5014072;28;20472;-42
2023/05/09 07:21:57;;;;;;;13.23;5.03;;;;;;;;;;5013840;28;20088;-44
2023/05/09 07:24:24;;;;;;;13.27;5.20;;;;;;;;;;5013928;28;20026;-43
2023/05/09 07:26:51;;;;;;;13.95;5.13;;;;;;;;;;5013984;28;20033;-43
2023/05/09 07:29:19;;;;;;;12.20;4.90;;;;;;;;;;5013881;28;20029;-44
2023/05/09 07:31:46;;;;;;;13.73;5.57;;;;;;;;;;5013823;28;20034;-43
2023/05/09 07:34:13;;;;;;;12.57;4.82;;;;;;;;;;5013708;28;20109;-43
2023/05/09 07:36:40;;;;;;;12.40;4.80;;;;;;;;;;5013662;28;20030;-46
2023/05/09 07:39:07;;;;;;;11.40;4.80;;;;;;;;;;5013676;28;20038;-44
2023/05/09 07:41:34;;;;;;;9.60;4.30;;;;;;;;;;5013553;28;20041;-43
2023/05/09 07:44:01;;;;;;;12.68;5.13;;;;;;;;;;5013429;28;20104;-45
2023/05/09 07:46:27;;;;;;;12.35;4.72;;;;;;;;;;5013468;28;20032;-44
2023/05/09 07:48:54;;;;;;;13.10;4.50;;;;;;;;;;5013527;28;20049;-44
2023/05/09 07:51:21;;;;;;;12.93;5.10;;;;;;;;;;5013518;28;20026;-43
2023/05/09 07:53:48;;;;;;;10.77;4.72;;;;;;;;;;5013335;28;20060;-44
2023/05/09 07:56:15;;;;;;;14.30;4.72;;;;;;;;;;5013251;28;20026;-43
2023/05/09 07:58:42;;;;;;;11.07;4.45;;;;;;;;;;5013352;28;20040;-43
2023/05/09 08:01:09;;;;;;;14.68;4.35;;;;;;;;;;5012653;28;20037;-43
2023/05/09 08:03:36;;;;;;;12.57;4.28;;;;;;;;;;5012636;28;20487;-43
2023/05/09 08:06:03;;;;;;;14.23;4.15;;;;;;;;;;5012999;28;20054;-43
2023/05/09 08:08:30;;;;;;;11.45;3.85;;;;;;;;;;5013074;28;20057;-43
2023/05/09 08:10:57;;;;;;;11.25;4.30;;;;;;;;;;5013081;28;20080;-43
2023/05/09 08:13:25;;;;;;;13.55;4.07;;;;;;;;;;5013001;28;20032;-43
2023/05/09 08:15:51;;;;;;;10.73;4.15;;;;;;;;;;5012955;28;20120;-46
2023/05/09 08:18:18;;;;;;;9.30;4.15;;;;;;;;;;5012920;28;20121;-43
2023/05/09 08:20:45;;;;;;;9.43;4.00;;;;;;;;;;5012840;28;20077;-43
2023/05/09 08:23:12;;;;;;;12.70;4.07;;;;;;;;;;5012616;28;20034;-43
2023/05/09 08:25:40;;;;;;;9.65;3.90;;;;;;;;;;5012808;28;20033;-43
2023/05/09 08:28:07;;;;;;;10.20;3.80;;;;;;;;;;5012778;28;20038;-44
2023/05/09 08:30:34;;;;;;;9.73;3.67;;;;;;;;;;5012843;28;20042;-43
2023/05/09 08:33:01;;;;;;;10.73;3.45;;;;;;;;;;5012614;28;20106;-43
2023/05/09 08:35:28;;;;;;;14.05;4.20;;;;;;;;;;5012607;28;20021;-43
2023/05/09 08:37:54;;;;;;;9.63;3.50;;;;;;;;;;5012695;28;20030;-43
2023/05/09 08:40:21;;;;;;;9.90;3.30;;;;;;;;;;5012660;28;20022;-43
2023/05/09 08:42:49;;;;;;;10.75;4.03;;;;;;;;;;5012349;28;20044;-43
2023/05/09 08:45:17;;;;;;;9.50;3.70;;;;;;;;;;5012533;28;20026;-43
2023/05/09 08:47:44;;;;;;;8.13;3.40;;;;;;;;;;5012437;28;20097;-44
2023/05/09 08:50:13;;;;;;;8.77;3.47;;;;;;;;;;5012438;28;20083;-44
2023/05/09 08:52:41;;;;;;;7.30;2.90;;;;;;;;;;5012246;28;20091;-43
2023/05/09 08:55:08;;;;;;;10.75;3.15;;;;;;;;;;5027496;28;20099;-43
2023/05/09 08:57:35;;;;;;;8.77;3.30;;;;;;;;;;5012380;28;20025;-44
2023/05/09 09:00:05;;;;;;;7.80;3.00;;;;;;;;;;5012194;28;20030;-44
2023/05/09 09:02:35;;;;;;;6.63;2.92;;;;;;;;;;5012134;28;20034;-44
2023/05/09 09:05:03;;;;;;;8.73;3.25;;;;;;;;;;5011981;28;20042;-46
2023/05/09 09:07:30;;;;;;;11.43;3.30;;;;;;;;;;5012176;28;20038;-43
2023/05/09 09:09:57;;;;;;;6.68;2.50;;;;;;;;;;5012159;28;20131;-43
2023/05/09 09:12:25;;;;;;;7.57;3.60;;;;;;;;;;5011811;28;20084;-43
2023/05/09 09:14:56;;;;;;;6.45;2.65;;;;;;;;;;5011978;28;20044;-44
2023/05/09 09:17:26;;;;;;;7.82;2.78;;;;;;;;;;5012291;28;20467;-43
2023/05/09 09:19:55;;;;;;;7.38;2.80;;;;;;;;;;5012093;28;20125;-43
2023/05/09 09:22:23;;;;;;;5.65;2.28;;;;;;;;;;5011589;28;20033;-45
2023/05/09 09:24:52;;;;;;;5.72;2.45;;;;;;;;;;5011710;28;20074;-43
2023/05/09 09:27:19;;;;;;;7.10;2.72;;;;;;;;;;5010475;28;20395;-46
2023/05/09 09:29:46;;;;;;;6.53;2.42;;;;;;;;;;5010672;28;20048;-43
2023/05/09 09:32:13;;;;;;;8.95;2.88;;;;;;;;;;5011593;28;20117;-43
2023/05/09 09:34:40;;;;;;;7.80;2.75;;;;;;;;;;5011822;28;20689;-42
2023/05/09 09:37:07;;;;;;;8.88;2.30;;;;;;;;;;5011766;28;20117;-43
2023/05/09 09:39:34;;;;;;;7.97;3.00;;;;;;;;;;5011817;28;20057;-43
2023/05/09 09:42:11;;;;;;;7.45;3.00;;;;;;;;;;5011620;28;20034;-43
2023/05/09 09:44:38;;;;;;;11.13;2.80;;;;;;;;;;5011663;28;20034;-43
2023/05/09 09:47:10;;;;;;;10.73;3.03;;;;;;;;;;5011083;28;20060;-43
2023/05/09 09:49:37;;;;;;;9.43;3.33;;;;;;;;;;5011314;28;20100;-42
2023/05/09 09:52:04;;;;;;;9.88;2.70;;;;;;;;;;5011569;28;20527;-44
2023/05/09 09:54:32;;;;;;;9.85;2.55;;;;;;;;;;5011188;28;20515;-43
2023/05/09 09:57:00;;;;;;;13.23;2.90;;;;;;;;;;5011263;28;20030;-42
2023/05/09 09:59:27;;;;;;;9.25;2.75;;;;;;;;;;5011353;28;20065;-42
2023/05/09 10:01:54;;;;;;;13.50;3.10;;;;;;;;;;5011390;28;20113;-42
2023/05/09 10:04:22;;;;;;;10.90;3.00;;;;;;;;;;5011467;28;20590;-41
2023/05/09 10:06:53;;;;;;;17.02;3.30;;;;;;;;;;5010829;28;20096;-43
2023/05/09 10:09:25;;;;;;;12.68;3.20;;;;;;;;;;5015820;28;20030;-43
2023/05/09 10:11:54;;;;;;;12.48;2.80;;;;;;;;;;5006589;28;20475;-43
2023/05/09 10:14:22;;;;;;;16.58;3.28;;;;;;;;;;5010029;28;20036;-43
2023/05/09 10:16:51;;;;;;;14.02;3.58;;;;;;;;;;5010037;28;20097;-43
2023/05/09 10:19:22;;;;;;;11.60;3.00;;;;;;;;;;5010038;28;20037;-42
2023/05/09 10:21:53;;;;;;;10.15;2.80;;;;;;;;;;5009906;28;20116;-43
2023/05/09 10:24:40;;;;;;;13.60;3.20;;;;;;;;;;5009967;28;20034;-42
2023/05/09 10:27:10;;;;;;;11.98;2.85;;;;;;;;;;5013068;28;20499;-43
2023/05/09 10:29:49;;;;;;;16.85;3.53;;;;;;;;;;5013640;28;20095;-43
2023/05/09 10:32:31;;;;;;;15.07;3.20;;;;;;;;;;5011730;28;20034;-41
2023/05/09 10:35:01;;;;;;;13.10;3.55;;;;;;;;;;5011821;28;20045;-43
2023/05/09 10:37:28;;;;;;;11.77;3.33;;;;;;;;;;5014614;28;20041;-44
2023/05/09 10:39:56;;;;;;;14.23;3.45;;;;;;;;;;5014640;28;20113;-41
2023/05/09 10:42:24;;;;;;;10.13;3.17;;;;;;;;;;5025049;28;20048;-41
2023/05/09 10:44:54;;;;;;;19.27;3.65;;;;;;;;;;5034208;28;20132;-43
2023/05/09 10:47:21;;;;;;;14.05;3.05;;;;;;;;;;5034508;28;20407;-43
2023/05/09 10:49:49;;;;;;;13.98;2.90;;;;;;;;;;5034402;28;20044;-43
2023/05/09 10:52:17;;;;;;;11.20;2.80;;;;;;;;;;5034356;28;20052;-43
2023/05/09 10:54:44;;;;;;;13.10;2.70;;;;;;;;;;5034355;28;20116;-43
2023/05/09 10:57:11;;;;;;;18.15;3.60;;;;;;;;;;5034277;28;20094;-43
2023/05/09 10:59:40;;;;;;;8.52;2.90;;;;;;;;;;5034196;28;20021;-43
2023/05/09 11:02:14;;;;;;;9.63;2.85;;;;;;;;;;5033991;28;20033;-43
2023/05/09 11:04:43;;;;;;;13.98;3.22;;;;;;;;;;5033935;28;20391;-43
2023/05/09 11:07:24;;;;;;;11.93;2.75;;;;;;;;;;5032390;28;20037;-44
2023/05/09 11:10:09;;;;;;;21.02;4.57;;;;;;;;;;5032012;28;20091;-42
2023/05/09 11:12:56;;;;;;;12.90;3.70;;;;;;;;;;5032195;28;20029;-44
2023/05/09 11:15:23;;;;;;;17.33;3.53;;;;;;;;;;5030969;28;20034;-45
2023/05/09 11:17:53;;;;;;;27.88;3.72;;;;;;;;;;5032030;28;20171;-46
2023/05/09 11:20:28;;;;;;;138.70;8.10;;;;;;;;;;5032793;28;20035;-53
2023/05/09 11:22:57;;;;;;;46.95;4.88;;;;;;;;;;5032830;28;20056;-53
2023/05/09 11:25:29;;;;;;;61.38;5.72;;;;;;;;;;5033238;28;20416;-54
2023/05/09 11:28:02;;;;;;;27.48;4.00;;;;;;;;;;5033574;28;20041;-54
2023/05/09 11:30:44;;;;;;;30.35;3.55;;;;;;;;;;5033502;28;20090;-54
2023/05/09 11:33:44;;;;;;;24.17;3.90;;;;;;;;;;5033425;28;20037;-52
2023/05/09 11:36:17;;;;;;;25.48;3.95;;;;;;;;;;5031850;28;20388;-55
2023/05/09 11:38:45;;;;;;;27.92;3.63;;;;;;;;;;5033338;28;20048;-54
2023/05/09 11:41:12;;;;;;;23.50;3.80;;;;;;;;;;5033389;28;20032;-55
2023/05/09 11:43:40;;;;;;;26.58;3.58;;;;;;;;;;5033194;28;20115;-54
2023/05/09 11:46:07;;;;;;;36.35;3.63;;;;;;;;;;5033225;28;20510;-52
2023/05/09 11:48:41;;;;;;;32.63;4.20;;;;;;;;;;5033157;28;20064;-54
2023/05/09 11:51:08;;;;;;;24.92;3.88;;;;;;;;;;5033093;28;20036;-53
2023/05/09 11:53:35;;;;;;;40.90;4.28;;;;;;;;;;5033055;28;20555;-54
2023/05/09 11:56:03;;;;;;;22.10;3.42;;;;;;;;;;5033081;28;20041;-54
2023/05/09 11:58:30;;;;;;;24.40;4.03;;;;;;;;;;5033000;28;20060;-53
2023/05/09 12:00:57;;;;;;;24.42;4.43;;;;;;;;;;5032808;28;20031;-52
2023/05/09 12:03:24;;;;;;;34.40;3.95;;;;;;;;;;5032876;28;20077;-55
2023/05/09 12:05:51;;;;;;;42.92;4.95;;;;;;;;;;5032689;28;20080;-52
2023/05/09 12:08:18;;;;;;;27.38;4.32;;;;;;;;;;5032635;28;20021;-57
2023/05/09 12:10:45;;;;;;;33.40;5.07;;;;;;;;;;5032716;28;20113;-55
2023/05/09 12:13:12;;;;;;;183.00;13.23;;;;;;;;;;5032544;28;20100;-52
2023/05/09 12:15:39;;;;;;;133.73;10.80;;;;;;;;;;5032556;28;20117;-51
2023/05/09 12:18:07;;;;;;;70.78;7.57;;;;;;;;;;5031235;28;20661;-53
2023/05/09 12:20:44;;;;;;;49.00;6.90;;;;;;;;;;5032512;28;20033;-51
2023/05/09 12:23:13;;;;;;;60.97;6.35;;;;;;;;;;5032269;28;20047;-53
2023/05/09 12:25:40;;;;;;;75.93;7.88;;;;;;;;;;5032487;28;20072;-54
2023/05/09 12:28:07;;;;;;;83.65;8.35;;;;;;;;;;5032324;28;20452;-55
2023/05/09 12:30:34;;;;;;;96.32;9.38;;;;;;;;;;5032346;28;20029;-51
2023/05/09 12:33:01;;;;;;;93.63;9.73;;;;;;;;;;5032244;28;20026;-53
2023/05/09 12:35:28;;;;;;;94.80;9.52;;;;;;;;;;5032223;28;20029;-55
2023/05/09 12:37:56;;;;;;;79.20;9.30;;;;;;;;;;5032252;28;20022;-52
2023/05/09 12:40:23;;;;;;;80.70;8.48;;;;;;;;;;5032057;28;20040;-52
2023/05/09 12:42:53;;;;;;;90.60;9.40;;;;;;;;;;5031984;28;20116;-52
2023/05/09 12:45:20;;;;;;;75.55;8.75;;;;;;;;;;5032074;28;20026;-53
2023/05/09 12:47:51;;;;;;;68.97;8.75;;;;;;;;;;5031423;28;20033;-55
2023/05/09 12:50:18;;;;;;;75.07;8.82;;;;;;;;;;5031957;28;20083;-51
2023/05/09 12:52:49;;;;;;;64.88;8.93;;;;;;;;;;5031799;28;20511;-55
2023/05/09 12:55:16;;;;;;;60.65;8.60;;;;;;;;;;5031994;28;20104;-52
2023/05/09 12:57:43;;;;;;;56.10;7.28;;;;;;;;;;5031957;28;20491;-51
2023/05/09 13:00:11;;;;;;;53.85;7.38;;;;;;;;;;5031798;28;20034;-53
2023/05/09 13:02:38;;;;;;;55.03;7.40;;;;;;;;;;5031624;28;20048;-54
2023/05/09 13:05:18;;;;;;;56.03;7.35;;;;;;;;;;5031582;28;20392;-54
2023/05/09 13:07:46;;;;;;;60.13;7.80;;;;;;;;;;5031754;28;20029;-55
2023/05/09 13:10:24;;;;;;;62.38;7.03;;;;;;;;;;5031589;28;20025;-52
2023/05/09 13:12:52;;;;;;;55.80;7.13;;;;;;;;;;5031567;28;20124;-52
2023/05/09 13:15:20;;;;;;;58.65;7.65;;;;;;;;;;5031660;28;20423;-52
2023/05/09 13:17:47;;;;;;;53.42;6.97;;;;;;;;;;5031632;28;20037;-55
2023/05/09 13:20:15;;;;;;;91.70;8.25;;;;;;;;;;5031618;28;20037;-54
2023/05/09 13:22:42;;;;;;;67.47;7.93;;;;;;;;;;5031323;28;20037;-51
2023/05/09 13:25:10;;;;;;;52.67;7.32;;;;;;;;;;5031496;28;20448;-53
2023/05/09 13:27:37;;;;;;;47.20;6.97;;;;;;;;;;5031425;28;20483;-51
2023/05/09 13:30:08;;;;;;;42.80;5.82;;;;;;;;;;5031456;28;20017;-51
2023/05/09 13:32:38;;;;;;;41.40;5.53;;;;;;;;;;5031325;28;20116;-50
2023/05/09 13:35:06;;;;;;;42.05;6.53;;;;;;;;;;5031271;28;20434;-51
2023/05/09 13:37:36;;;;;;;43.38;6.07;;;;;;;;;;5030147;28;20035;-50
2023/05/09 13:40:04;;;;;;;38.05;6.05;;;;;;;;;;5031347;28;20030;-50
2023/05/09 13:42:31;;;;;;;43.67;5.30;;;;;;;;;;5031097;28;20075;-50
2023/05/09 13:44:58;;;;;;;35.28;5.47;;;;;;;;;;5031309;28;20116;-49
2023/05/09 13:47:25;;;;;;;50.97;5.93;;;;;;;;;;5031372;28;20022;-51
2023/05/09 13:49:52;;;;;;;53.25;5.97;;;;;;;;;;5031272;28;20059;-50
2023/05/09 13:52:20;;;;;;;52.10;5.28;;;;;;;;;;5031188;28;20033;-51
2023/05/09 13:54:47;;;;;;;45.83;5.43;;;;;;;;;;5030445;28;20483;-50
2023/05/09 13:57:14;;;;;;;156.45;11.35;;;;;;;;;;5029899;28;20034;-49
2023/05/09 13:59:41;;;;;;;164.02;11.52;;;;;;;;;;5031820;28;20029;-51
2023/05/09 14:02:09;;;;;;;86.47;7.50;;;;;;;;;;5033668;28;20072;-50
2023/05/09 14:04:37;;;;;;;75.57;7.15;;;;;;;;;;5031572;28;20029;-50
2023/05/09 14:07:04;;;;;;;65.05;6.28;;;;;;;;;;5033860;28;20045;-50
2023/05/09 14:09:36;;;;;;;52.90;5.72;;;;;;;;;;5033558;28;20472;-49
2023/05/09 14:12:04;;;;;;;59.63;5.05;;;;;;;;;;5034056;28;20442;-48
2023/05/09 14:14:31;;;;;;;54.58;5.30;;;;;;;;;;5033444;28;20021;-48
2023/05/09 14:16:58;;;;;;;53.17;5.35;;;;;;;;;;5033610;28;20033;-49
2023/05/09 14:19:28;;;;;;;45.63;5.03;;;;;;;;;;5030852;28;20040;-50
2023/05/09 14:21:56;;;;;;;49.22;5.22;;;;;;;;;;5030729;28;20038;-50
2023/05/09 14:24:23;;;;;;;37.22;4.55;;;;;;;;;;5033459;28;20674;-50
2023/05/09 14:26:50;;;;;;;40.60;4.18;;;;;;;;;;5033295;28;20026;-50
2023/05/09 14:29:16;;;;;;;33.38;4.50;;;;;;;;;;5033330;28;20039;-50